sensor_id;sensor_type;location;lat;lon;timestamp;P1;durP1;ratioP1;P2;durP2;ratioP2
60612;SDS011;46443;59.792;17.626;2023-05-10T00:00:34;5.40;;;3.70;;
60612;SDS011;46443;59.792;17.626;2023-05-10T00:03:00;8.43;;;4.07;;
60612;SDS011;46443;59.792;17.626;2023-05-10T00:05:26;5.20;;;3.60;;
60612;SDS011;46443;59.792;17.626;2023-05-10T00:07:52;6.30;;;4.20;;
60612;SDS011;46443;59.792;17.626;2023-05-10T00:10:18;6.33;;;4.37;;
60612;SDS011;46443;59.792;17.626;2023-05-10T00:12:44;6.30;;;4.30;;
60612;SDS011;46443;59.792;17.626;2023-05-10T00:15:10;6.13;;;4.27;;
60612;SDS011;46443;59.792;17.626;2023-05-10T00:17:36;7.10;;;3.90;;
60612;SDS011;46443;59.792;17.626;2023-05-10T00:20:02;5.70;;;3.93;;
60612;SDS011;46443;59.792;17.626;2023-05-10T00:22:30;7.20;;;4.27;;
60612;SDS011;46443;59.792;17.626;2023-05-10T00:24:56;6.23;;;4.10;;
60612;SDS011;46443;59.792;17.626;2023-05-10T00:27:22;6.37;;;4.30;;
60612;SDS011;46443;59.792;17.626;2023-05-10T00:29:49;5.47;;;3.90;;
60612;SDS011;46443;59.792;17.626;2023-05-10T00:32:15;7.73;;;4.40;;
60612;SDS011;46443;59.792;17.626;2023-05-10T00:34:41;7.93;;;4.27;;
60612;SDS011;46443;59.792;17.626;2023-05-10T00:37:07;6.80;;;4.20;;
60612;SDS011;46443;59.792;17.626;2023-05-10T00:39:33;6.67;;;4.37;;
60612;SDS011;46443;59.792;17.626;2023-05-10T00:41:59;8.80;;;4.10;;
60612;SDS011;46443;59.792;17.626;2023-05-10T00:44:26;7.00;;;4.37;;
60612;SDS011;46443;59.792;17.626;2023-05-10T00:46:52;7.10;;;4.40;;
60612;SDS011;46443;59.792;17.626;2023-05-10T00:49:18;8.07;;;4.30;;
60612;SDS011;46443;59.792;17.626;2023-05-10T00:51:45;6.23;;;4.33;;
60612;SDS011;46443;59.792;17.626;2023-05-10T00:54:12;6.30;;;4.30;;
60612;SDS011;46443;59.792;17.626;2023-05-10T00:56:40;6.50;;;4.30;;
60612;SDS011;46443;59.792;17.626;2023-05-10T00:59:07;6.73;;;4.37;;
60612;SDS011;46443;59.792;17.626;2023-05-10T01:01:34;6.80;;;4.23;;
60612;SDS011;46443;59.792;17.626;2023-05-10T01:04:01;7.47;;;4.20;;
60612;SDS011;46443;59.792;17.626;2023-05-10T01:06:28;7.63;;;4.90;;
60612;SDS011;46443;59.792;17.626;2023-05-10T01:08:54;6.40;;;4.40;;
60612;SDS011;46443;59.792;17.626;2023-05-10T01:11:21;7.87;;;4.60;;
60612;SDS011;46443;59.792;17.626;2023-05-10T01:13:47;7.07;;;4.63;;
60612;SDS011;46443;59.792;17.626;2023-05-10T01:16:18;6.37;;;4.20;;
60612;SDS011;46443;59.792;17.626;2023-05-10T01:18:44;8.00;;;5.03;;
60612;SDS011;46443;59.792;17.626;2023-05-10T01:34:27;7.73;;;4.97;;
60612;SDS011;46443;59.792;17.626;2023-05-10T01:37:02;10.33;;;4.70;;
60612;SDS011;46443;59.792;17.626;2023-05-10T01:39:31;6.97;;;5.10;;
60612;SDS011;46443;59.792;17.626;2023-05-10T01:42:03;6.72;;;4.50;;
60612;SDS011;46443;59.792;17.626;2023-05-10T01:47:10;8.23;;;5.20;;
60612;SDS011;46443;59.792;17.626;2023-05-10T01:49:39;7.07;;;5.03;;
60612;SDS011;46443;59.792;17.626;2023-05-10T01:52:08;10.13;;;5.68;;
60612;SDS011;46443;59.792;17.626;2023-05-10T01:54:35;7.40;;;5.13;;
60612;SDS011;46443;59.792;17.626;2023-05-10T01:57:03;11.60;;;4.83;;
60612;SDS011;46443;59.792;17.626;2023-05-10T01:59:32;8.43;;;4.63;;
60612;SDS011;46443;59.792;17.626;2023-05-10T02:02:06;9.43;;;5.47;;
60612;SDS011;46443;59.792;17.626;2023-05-10T02:04:33;8.57;;;5.03;;
60612;SDS011;46443;59.792;17.626;2023-05-10T02:07:01;8.30;;;4.90;;
60612;SDS011;46443;59.792;17.626;2023-05-10T02:09:27;8.37;;;5.23;;
60612;SDS011;46443;59.792;17.626;2023-05-10T02:11:54;6.93;;;4.27;;
60612;SDS011;46443;59.792;17.626;2023-05-10T02:14:21;8.00;;;5.10;;
60612;SDS011;46443;59.792;17.626;2023-05-10T02:16:49;6.57;;;4.20;;
60612;SDS011;46443;59.792;17.626;2023-05-10T02:19:16;6.03;;;4.27;;
60612;SDS011;46443;59.792;17.626;2023-05-10T02:21:43;5.17;;;3.93;;
60612;SDS011;46443;59.792;17.626;2023-05-10T02:24:10;7.27;;;4.70;;
60612;SDS011;46443;59.792;17.626;2023-05-10T02:26:36;8.83;;;4.17;;
60612;SDS011;46443;59.792;17.626;2023-05-10T02:29:03;7.80;;;5.30;;
60612;SDS011;46443;59.792;17.626;2023-05-10T02:31:32;8.40;;;5.83;;
60612;SDS011;46443;59.792;17.626;2023-05-10T02:33:59;8.20;;;5.40;;
60612;SDS011;46443;59.792;17.626;2023-05-10T02:36:26;7.93;;;4.70;;
60612;SDS011;46443;59.792;17.626;2023-05-10T02:38:52;7.53;;;5.20;;
60612;SDS011;46443;59.792;17.626;2023-05-10T02:41:19;8.50;;;5.00;;
60612;SDS011;46443;59.792;17.626;2023-05-10T02:43:46;8.53;;;5.10;;
60612;SDS011;46443;59.792;17.626;2023-05-10T02:46:13;9.33;;;4.60;;
60612;SDS011;46443;59.792;17.626;2023-05-10T02:48:39;7.00;;;4.73;;
60612;SDS011;46443;59.792;17.626;2023-05-10T02:51:05;6.93;;;4.37;;
60612;SDS011;46443;59.792;17.626;2023-05-10T02:53:34;8.33;;;4.20;;
60612;SDS011;46443;59.792;17.626;2023-05-10T02:56:01;7.17;;;4.50;;
60612;SDS011;46443;59.792;17.626;2023-05-10T02:58:32;6.97;;;4.33;;
60612;SDS011;46443;59.792;17.626;2023-05-10T03:00:58;6.40;;;4.10;;
60612;SDS011;46443;59.792;17.626;2023-05-10T03:03:25;5.93;;;4.00;;
60612;SDS011;46443;59.792;17.626;2023-05-10T03:05:51;7.40;;;4.40;;
60612;SDS011;46443;59.792;17.626;2023-05-10T03:08:20;8.70;;;5.78;;
60612;SDS011;46443;59.792;17.626;2023-05-10T03:13:39;6.43;;;4.03;;
60612;SDS011;46443;59.792;17.626;2023-05-10T03:16:14;5.90;;;4.30;;
60612;SDS011;46443;59.792;17.626;2023-05-10T03:18:48;9.10;;;5.30;;
60612;SDS011;46443;59.792;17.626;2023-05-10T03:21:17;5.90;;;4.15;;
60612;SDS011;46443;59.792;17.626;2023-05-10T03:23:46;5.87;;;4.57;;
60612;SDS011;46443;59.792;17.626;2023-05-10T03:26:15;7.78;;;4.35;;
60612;SDS011;46443;59.792;17.626;2023-05-10T03:28:43;8.65;;;4.38;;
60612;SDS011;46443;59.792;17.626;2023-05-10T03:31:09;6.50;;;4.03;;
60612;SDS011;46443;59.792;17.626;2023-05-10T03:33:35;7.17;;;4.43;;
60612;SDS011;46443;59.792;17.626;2023-05-10T03:36:01;6.30;;;4.30;;
60612;SDS011;46443;59.792;17.626;2023-05-10T03:38:27;8.83;;;4.67;;
60612;SDS011;46443;59.792;17.626;2023-05-10T03:40:53;7.20;;;4.93;;
60612;SDS011;46443;59.792;17.626;2023-05-10T03:43:20;6.43;;;4.33;;
60612;SDS011;46443;59.792;17.626;2023-05-10T03:45:46;7.70;;;4.30;;
60612;SDS011;46443;59.792;17.626;2023-05-10T03:48:12;6.43;;;4.50;;
60612;SDS011;46443;59.792;17.626;2023-05-10T03:50:38;8.47;;;4.83;;
60612;SDS011;46443;59.792;17.626;2023-05-10T03:53:05;7.37;;;4.33;;
60612;SDS011;46443;59.792;17.626;2023-05-10T03:55:31;5.97;;;4.47;;
60612;SDS011;46443;59.792;17.626;2023-05-10T03:57:59;7.07;;;3.90;;
60612;SDS011;46443;59.792;17.626;2023-05-10T04:00:25;7.60;;;4.37;;
60612;SDS011;46443;59.792;17.626;2023-05-10T04:02:51;7.50;;;4.20;;
60612;SDS011;46443;59.792;17.626;2023-05-10T04:05:17;6.53;;;4.27;;
60612;SDS011;46443;59.792;17.626;2023-05-10T04:07:43;6.53;;;4.50;;
60612;SDS011;46443;59.792;17.626;2023-05-10T04:10:10;6.60;;;4.10;;
60612;SDS011;46443;59.792;17.626;2023-05-10T04:12:36;6.37;;;4.50;;
60612;SDS011;46443;59.792;17.626;2023-05-10T04:15:02;7.87;;;4.77;;
60612;SDS011;46443;59.792;17.626;2023-05-10T04:17:28;7.07;;;4.67;;
60612;SDS011;46443;59.792;17.626;2023-05-10T04:19:55;6.97;;;4.17;;
60612;SDS011;46443;59.792;17.626;2023-05-10T04:22:21;6.93;;;4.67;;
60612;SDS011;46443;59.792;17.626;2023-05-10T04:24:47;8.03;;;4.53;;
60612;SDS011;46443;59.792;17.626;2023-05-10T04:27:13;7.93;;;4.83;;
60612;SDS011;46443;59.792;17.626;2023-05-10T04:29:39;7.47;;;4.83;;
60612;SDS011;46443;59.792;17.626;2023-05-10T04:32:06;7.13;;;4.60;;
60612;SDS011;46443;59.792;17.626;2023-05-10T04:34:33;6.77;;;4.07;;
60612;SDS011;46443;59.792;17.626;2023-05-10T04:37:02;8.88;;;4.53;;
60612;SDS011;46443;59.792;17.626;2023-05-10T04:39:28;7.97;;;5.73;;
60612;SDS011;46443;59.792;17.626;2023-05-10T04:41:54;6.00;;;4.93;;
60612;SDS011;46443;59.792;17.626;2023-05-10T04:44:20;7.60;;;4.53;;
60612;SDS011;46443;59.792;17.626;2023-05-10T04:46:46;6.37;;;4.03;;
60612;SDS011;46443;59.792;17.626;2023-05-10T04:49:12;8.73;;;4.70;;
60612;SDS011;46443;59.792;17.626;2023-05-10T04:51:39;8.07;;;4.53;;
60612;SDS011;46443;59.792;17.626;2023-05-10T04:54:05;8.77;;;5.20;;
60612;SDS011;46443;59.792;17.626;2023-05-10T04:56:31;7.27;;;4.80;;
60612;SDS011;46443;59.792;17.626;2023-05-10T04:58:57;6.87;;;4.77;;
60612;SDS011;46443;59.792;17.626;2023-05-10T05:01:23;7.80;;;4.80;;
60612;SDS011;46443;59.792;17.626;2023-05-10T05:03:49;7.20;;;4.73;;
60612;SDS011;46443;59.792;17.626;2023-05-10T05:06:17;8.57;;;5.10;;
60612;SDS011;46443;59.792;17.626;2023-05-10T05:08:43;7.00;;;4.30;;
60612;SDS011;46443;59.792;17.626;2023-05-10T05:11:09;6.43;;;4.50;;
60612;SDS011;46443;59.792;17.626;2023-05-10T05:13:36;6.57;;;4.80;;
60612;SDS011;46443;59.792;17.626;2023-05-10T05:16:02;7.70;;;5.20;;
60612;SDS011;46443;59.792;17.626;2023-05-10T05:18:28;7.57;;;4.77;;
60612;SDS011;46443;59.792;17.626;2023-05-10T05:20:54;7.43;;;4.30;;
60612;SDS011;46443;59.792;17.626;2023-05-10T05:23:20;7.73;;;4.20;;
60612;SDS011;46443;59.792;17.626;2023-05-10T05:25:50;7.17;;;4.60;;
60612;SDS011;46443;59.792;17.626;2023-05-10T05:28:16;6.67;;;4.50;;
60612;SDS011;46443;59.792;17.626;2023-05-10T05:30:42;6.93;;;4.30;;
60612;SDS011;46443;59.792;17.626;2023-05-10T05:33:09;7.60;;;5.17;;
60612;SDS011;46443;59.792;17.626;2023-05-10T05:35:35;7.33;;;4.83;;
60612;SDS011;46443;59.792;17.626;2023-05-10T05:38:01;7.63;;;4.67;;
60612;SDS011;46443;59.792;17.626;2023-05-10T05:40:27;10.43;;;4.67;;
60612;SDS011;46443;59.792;17.626;2023-05-10T05:42:53;7.63;;;4.67;;
60612;SDS011;46443;59.792;17.626;2023-05-10T05:45:20;8.80;;;4.93;;
60612;SDS011;46443;59.792;17.626;2023-05-10T05:47:46;7.47;;;4.40;;
60612;SDS011;46443;59.792;17.626;2023-05-10T05:50:12;6.37;;;4.40;;
60612;SDS011;46443;59.792;17.626;2023-05-10T05:52:38;5.97;;;4.37;;
60612;SDS011;46443;59.792;17.626;2023-05-10T05:55:04;8.40;;;4.30;;
60612;SDS011;46443;59.792;17.626;2023-05-10T05:57:30;6.43;;;4.37;;
60612;SDS011;46443;59.792;17.626;2023-05-10T05:59:56;7.40;;;4.43;;
60612;SDS011;46443;59.792;17.626;2023-05-10T06:02:22;8.03;;;4.37;;
60612;SDS011;46443;59.792;17.626;2023-05-10T06:04:49;10.50;;;5.00;;
60612;SDS011;46443;59.792;17.626;2023-05-10T06:07:15;8.57;;;3.90;;
60612;SDS011;46443;59.792;17.626;2023-05-10T06:09:41;6.33;;;4.30;;
60612;SDS011;46443;59.792;17.626;2023-05-10T06:12:07;7.50;;;4.47;;
60612;SDS011;46443;59.792;17.626;2023-05-10T06:14:33;6.30;;;4.37;;
60612;SDS011;46443;59.792;17.626;2023-05-10T06:16:59;7.27;;;4.27;;
60612;SDS011;46443;59.792;17.626;2023-05-10T06:19:25;6.73;;;4.43;;
60612;SDS011;46443;59.792;17.626;2023-05-10T06:21:52;7.80;;;4.20;;
60612;SDS011;46443;59.792;17.626;2023-05-10T06:24:18;6.93;;;3.97;;
60612;SDS011;46443;59.792;17.626;2023-05-10T06:26:44;6.13;;;3.93;;
60612;SDS011;46443;59.792;17.626;2023-05-10T06:29:10;6.77;;;4.53;;
60612;SDS011;46443;59.792;17.626;2023-05-10T06:31:36;7.60;;;4.07;;
60612;SDS011;46443;59.792;17.626;2023-05-10T06:34:03;5.63;;;4.00;;
60612;SDS011;46443;59.792;17.626;2023-05-10T06:36:29;5.93;;;3.83;;
60612;SDS011;46443;59.792;17.626;2023-05-10T06:38:55;6.67;;;4.30;;
60612;SDS011;46443;59.792;17.626;2023-05-10T06:41:21;7.37;;;4.57;;
60612;SDS011;46443;59.792;17.626;2023-05-10T06:43:47;6.80;;;3.90;;
60612;SDS011;46443;59.792;17.626;2023-05-10T06:46:13;5.87;;;3.77;;
60612;SDS011;46443;59.792;17.626;2023-05-10T06:48:39;5.40;;;4.13;;
60612;SDS011;46443;59.792;17.626;2023-05-10T06:51:06;6.17;;;3.70;;
60612;SDS011;46443;59.792;17.626;2023-05-10T06:53:32;8.60;;;4.33;;
60612;SDS011;46443;59.792;17.626;2023-05-10T06:55:58;7.93;;;4.00;;
60612;SDS011;46443;59.792;17.626;2023-05-10T06:58:24;5.77;;;4.00;;
60612;SDS011;46443;59.792;17.626;2023-05-10T07:00:50;8.50;;;4.20;;
60612;SDS011;46443;59.792;17.626;2023-05-10T07:03:16;6.93;;;3.90;;
60612;SDS011;46443;59.792;17.626;2023-05-10T07:05:42;9.00;;;3.87;;
60612;SDS011;46443;59.792;17.626;2023-05-10T07:08:08;6.07;;;3.80;;
60612;SDS011;46443;59.792;17.626;2023-05-10T07:10:35;5.73;;;3.83;;
60612;SDS011;46443;59.792;17.626;2023-05-10T07:13:01;6.63;;;4.00;;
60612;SDS011;46443;59.792;17.626;2023-05-10T07:15:27;6.67;;;3.70;;
60612;SDS011;46443;59.792;17.626;2023-05-10T07:17:53;7.33;;;4.17;;
60612;SDS011;46443;59.792;17.626;2023-05-10T07:20:19;7.63;;;3.83;;
60612;SDS011;46443;59.792;17.626;2023-05-10T07:22:45;5.50;;;3.83;;
60612;SDS011;46443;59.792;17.626;2023-05-10T07:25:11;7.53;;;3.70;;
60612;SDS011;46443;59.792;17.626;2023-05-10T07:27:37;7.10;;;3.77;;
60612;SDS011;46443;59.792;17.626;2023-05-10T07:30:04;4.90;;;3.30;;
60612;SDS011;46443;59.792;17.626;2023-05-10T07:32:30;8.27;;;3.73;;
60612;SDS011;46443;59.792;17.626;2023-05-10T07:34:56;6.47;;;3.60;;
60612;SDS011;46443;59.792;17.626;2023-05-10T07:37:22;5.07;;;3.60;;
60612;SDS011;46443;59.792;17.626;2023-05-10T07:39:48;5.80;;;3.73;;
60612;SDS011;46443;59.792;17.626;2023-05-10T07:42:14;7.53;;;3.97;;
60612;SDS011;46443;59.792;17.626;2023-05-10T07:44:40;7.47;;;4.00;;
60612;SDS011;46443;59.792;17.626;2023-05-10T07:47:06;5.77;;;3.60;;
60612;SDS011;46443;59.792;17.626;2023-05-10T07:49:32;6.90;;;3.97;;
60612;SDS011;46443;59.792;17.626;2023-05-10T07:51:58;7.87;;;4.13;;
60612;SDS011;46443;59.792;17.626;2023-05-10T07:54:25;8.00;;;3.53;;
60612;SDS011;46443;59.792;17.626;2023-05-10T07:56:51;5.47;;;3.27;;
60612;SDS011;46443;59.792;17.626;2023-05-10T07:59:17;7.80;;;3.90;;
60612;SDS011;46443;59.792;17.626;2023-05-10T08:01:43;6.43;;;3.70;;
60612;SDS011;46443;59.792;17.626;2023-05-10T08:04:09;8.60;;;3.90;;
60612;SDS011;46443;59.792;17.626;2023-05-10T08:06:36;5.10;;;3.57;;
60612;SDS011;46443;59.792;17.626;2023-05-10T08:09:02;8.57;;;3.80;;
60612;SDS011;46443;59.792;17.626;2023-05-10T08:11:28;5.90;;;3.77;;
60612;SDS011;46443;59.792;17.626;2023-05-10T08:13:54;5.43;;;3.50;;
60612;SDS011;46443;59.792;17.626;2023-05-10T08:16:20;6.40;;;3.43;;
60612;SDS011;46443;59.792;17.626;2023-05-10T08:18:47;6.60;;;4.03;;
60612;SDS011;46443;59.792;17.626;2023-05-10T08:21:14;6.43;;;3.73;;
60612;SDS011;46443;59.792;17.626;2023-05-10T08:23:40;5.73;;;3.53;;
60612;SDS011;46443;59.792;17.626;2023-05-10T08:26:08;8.53;;;3.50;;
60612;SDS011;46443;59.792;17.626;2023-05-10T08:28:34;5.97;;;3.67;;
60612;SDS011;46443;59.792;17.626;2023-05-10T08:31:00;6.37;;;3.70;;
60612;SDS011;46443;59.792;17.626;2023-05-10T08:33:26;7.80;;;3.97;;
60612;SDS011;46443;59.792;17.626;2023-05-10T08:35:52;5.87;;;3.73;;
60612;SDS011;46443;59.792;17.626;2023-05-10T08:38:19;6.60;;;3.60;;
60612;SDS011;46443;59.792;17.626;2023-05-10T08:40:45;6.63;;;3.73;;
60612;SDS011;46443;59.792;17.626;2023-05-10T08:43:12;7.77;;;3.60;;
60612;SDS011;46443;59.792;17.626;2023-05-10T08:45:41;7.33;;;3.87;;
60612;SDS011;46443;59.792;17.626;2023-05-10T08:48:08;6.60;;;3.50;;
60612;SDS011;46443;59.792;17.626;2023-05-10T08:50:38;5.63;;;3.63;;
60612;SDS011;46443;59.792;17.626;2023-05-10T08:53:11;6.87;;;3.47;;
60612;SDS011;46443;59.792;17.626;2023-05-10T08:55:38;6.77;;;3.53;;
60612;SDS011;46443;59.792;17.626;2023-05-10T08:58:07;6.35;;;3.80;;
60612;SDS011;46443;59.792;17.626;2023-05-10T09:00:33;4.77;;;3.60;;
60612;SDS011;46443;59.792;17.626;2023-05-10T09:03:00;7.43;;;3.53;;
60612;SDS011;46443;59.792;17.626;2023-05-10T09:05:26;5.17;;;3.50;;
60612;SDS011;46443;59.792;17.626;2023-05-10T09:07:53;6.67;;;3.63;;
60612;SDS011;46443;59.792;17.626;2023-05-10T09:10:19;6.67;;;3.30;;
60612;SDS011;46443;59.792;17.626;2023-05-10T09:12:46;7.53;;;4.03;;
60612;SDS011;46443;59.792;17.626;2023-05-10T09:15:15;6.47;;;3.67;;
60612;SDS011;46443;59.792;17.626;2023-05-10T09:17:44;5.50;;;3.40;;
60612;SDS011;46443;59.792;17.626;2023-05-10T09:20:10;6.47;;;3.40;;
60612;SDS011;46443;59.792;17.626;2023-05-10T09:22:36;5.37;;;3.50;;
60612;SDS011;46443;59.792;17.626;2023-05-10T09:27:32;4.60;;;3.22;;
60612;SDS011;46443;59.792;17.626;2023-05-10T09:29:58;6.30;;;3.50;;
60612;SDS011;46443;59.792;17.626;2023-05-10T09:35:07;6.80;;;3.30;;
60612;SDS011;46443;59.792;17.626;2023-05-10T09:37:33;6.27;;;3.30;;
60612;SDS011;46443;59.792;17.626;2023-05-10T09:39:59;4.93;;;2.97;;
60612;SDS011;46443;59.792;17.626;2023-05-10T09:42:25;5.70;;;3.40;;
60612;SDS011;46443;59.792;17.626;2023-05-10T09:44:51;5.63;;;3.57;;
60612;SDS011;46443;59.792;17.626;2023-05-10T09:47:17;6.23;;;3.50;;
60612;SDS011;46443;59.792;17.626;2023-05-10T09:49:44;5.57;;;3.20;;
60612;SDS011;46443;59.792;17.626;2023-05-10T09:52:10;8.23;;;3.57;;
60612;SDS011;46443;59.792;17.626;2023-05-10T09:54:36;4.40;;;3.00;;
60612;SDS011;46443;59.792;17.626;2023-05-10T09:57:02;6.57;;;3.40;;
60612;SDS011;46443;59.792;17.626;2023-05-10T09:59:28;4.10;;;3.10;;
60612;SDS011;46443;59.792;17.626;2023-05-10T10:01:58;5.47;;;3.60;;
60612;SDS011;46443;59.792;17.626;2023-05-10T10:04:25;4.70;;;3.40;;
60612;SDS011;46443;59.792;17.626;2023-05-10T10:06:58;6.87;;;3.47;;
60612;SDS011;46443;59.792;17.626;2023-05-10T10:09:25;8.37;;;3.37;;
60612;SDS011;46443;59.792;17.626;2023-05-10T10:11:52;6.73;;;3.47;;
60612;SDS011;46443;59.792;17.626;2023-05-10T10:14:21;9.03;;;3.97;;
60612;SDS011;46443;59.792;17.626;2023-05-10T10:16:48;8.30;;;3.90;;
60612;SDS011;46443;59.792;17.626;2023-05-10T10:19:15;6.57;;;3.50;;
60612;SDS011;46443;59.792;17.626;2023-05-10T10:21:41;8.03;;;3.70;;
60612;SDS011;46443;59.792;17.626;2023-05-10T10:24:07;8.23;;;3.50;;
60612;SDS011;46443;59.792;17.626;2023-05-10T10:26:33;6.23;;;4.13;;
60612;SDS011;46443;59.792;17.626;2023-05-10T10:29:15;6.63;;;3.83;;
60612;SDS011;46443;59.792;17.626;2023-05-10T10:32:18;8.03;;;3.80;;
60612;SDS011;46443;59.792;17.626;2023-05-10T10:34:34;9.27;;;3.73;;
60612;SDS011;46443;59.792;17.626;2023-05-10T10:37:05;6.77;;;3.70;;
60612;SDS011;46443;59.792;17.626;2023-05-10T10:41:58;5.50;;;3.27;;
60612;SDS011;46443;59.792;17.626;2023-05-10T10:49:49;6.50;;;3.30;;
60612;SDS011;46443;59.792;17.626;2023-05-10T10:57:21;6.93;;;3.63;;
60612;SDS011;46443;59.792;17.626;2023-05-10T10:59:47;6.23;;;3.30;;
60612;SDS011;46443;59.792;17.626;2023-05-10T11:04:58;6.20;;;3.50;;
60612;SDS011;46443;59.792;17.626;2023-05-10T11:07:24;6.13;;;3.27;;
60612;SDS011;46443;59.792;17.626;2023-05-10T11:09:50;5.57;;;3.23;;
60612;SDS011;46443;59.792;17.626;2023-05-10T11:12:16;7.37;;;3.53;;
60612;SDS011;46443;59.792;17.626;2023-05-10T11:14:42;7.03;;;3.37;;
60612;SDS011;46443;59.792;17.626;2023-05-10T11:17:24;7.00;;;3.77;;
60612;SDS011;46443;59.792;17.626;2023-05-10T11:20:06;5.60;;;3.00;;
60612;SDS011;46443;59.792;17.626;2023-05-10T11:22:48;5.73;;;3.53;;
60612;SDS011;46443;59.792;17.626;2023-05-10T11:25:15;6.63;;;3.30;;
60612;SDS011;46443;59.792;17.626;2023-05-10T11:27:41;5.47;;;3.30;;
60612;SDS011;46443;59.792;17.626;2023-05-10T11:30:09;6.00;;;3.40;;
60612;SDS011;46443;59.792;17.626;2023-05-10T11:32:37;9.20;;;3.50;;
60612;SDS011;46443;59.792;17.626;2023-05-10T11:35:07;6.53;;;3.40;;
60612;SDS011;46443;59.792;17.626;2023-05-10T11:37:33;5.80;;;3.73;;
60612;SDS011;46443;59.792;17.626;2023-05-10T11:39:59;5.77;;;3.50;;
60612;SDS011;46443;59.792;17.626;2023-05-10T11:42:27;5.60;;;3.60;;
60612;SDS011;46443;59.792;17.626;2023-05-10T11:44:53;6.23;;;3.23;;
60612;SDS011;46443;59.792;17.626;2023-05-10T11:47:19;6.20;;;3.50;;
60612;SDS011;46443;59.792;17.626;2023-05-10T11:49:46;8.57;;;3.67;;
60612;SDS011;46443;59.792;17.626;2023-05-10T11:52:12;6.67;;;3.57;;
60612;SDS011;46443;59.792;17.626;2023-05-10T11:54:44;7.40;;;3.60;;
60612;SDS011;46443;59.792;17.626;2023-05-10T11:57:11;8.37;;;3.40;;
60612;SDS011;46443;59.792;17.626;2023-05-10T11:59:37;5.20;;;3.30;;
60612;SDS011;46443;59.792;17.626;2023-05-10T12:02:03;5.63;;;3.10;;
60612;SDS011;46443;59.792;17.626;2023-05-10T12:04:29;4.70;;;3.40;;
60612;SDS011;46443;59.792;17.626;2023-05-10T12:06:55;4.70;;;3.17;;
60612;SDS011;46443;59.792;17.626;2023-05-10T12:09:22;4.93;;;3.30;;
60612;SDS011;46443;59.792;17.626;2023-05-10T12:11:48;6.73;;;3.70;;
60612;SDS011;46443;59.792;17.626;2023-05-10T12:14:14;5.17;;;3.43;;
60612;SDS011;46443;59.792;17.626;2023-05-10T12:16:42;4.70;;;3.03;;
60612;SDS011;46443;59.792;17.626;2023-05-10T12:19:08;9.17;;;3.57;;
60612;SDS011;46443;59.792;17.626;2023-05-10T12:21:34;7.13;;;3.27;;
60612;SDS011;46443;59.792;17.626;2023-05-10T12:24:02;6.87;;;3.17;;
60612;SDS011;46443;59.792;17.626;2023-05-10T12:26:28;5.40;;;3.30;;
60612;SDS011;46443;59.792;17.626;2023-05-10T12:28:55;5.60;;;3.30;;
60612;SDS011;46443;59.792;17.626;2023-05-10T12:31:21;4.23;;;2.90;;
60612;SDS011;46443;59.792;17.626;2023-05-10T12:33:47;6.30;;;3.30;;
60612;SDS011;46443;59.792;17.626;2023-05-10T12:36:14;7.77;;;3.67;;
60612;SDS011;46443;59.792;17.626;2023-05-10T12:38:42;5.80;;;3.73;;
60612;SDS011;46443;59.792;17.626;2023-05-10T12:41:09;5.77;;;3.43;;
60612;SDS011;46443;59.792;17.626;2023-05-10T12:43:35;4.50;;;3.13;;
60612;SDS011;46443;59.792;17.626;2023-05-10T12:46:08;5.77;;;3.30;;
60612;SDS011;46443;59.792;17.626;2023-05-10T12:48:35;7.47;;;3.67;;
60612;SDS011;46443;59.792;17.626;2023-05-10T12:51:02;5.13;;;3.47;;
60612;SDS011;46443;59.792;17.626;2023-05-10T12:53:29;5.53;;;3.60;;
60612;SDS011;46443;59.792;17.626;2023-05-10T12:55:55;8.90;;;3.60;;
60612;SDS011;46443;59.792;17.626;2023-05-10T12:58:21;5.33;;;3.30;;
60612;SDS011;46443;59.792;17.626;2023-05-10T13:00:47;5.20;;;2.90;;
60612;SDS011;46443;59.792;17.626;2023-05-10T13:03:13;7.97;;;3.30;;
60612;SDS011;46443;59.792;17.626;2023-05-10T13:05:40;6.70;;;3.20;;
60612;SDS011;46443;59.792;17.626;2023-05-10T13:08:06;4.40;;;3.00;;
60612;SDS011;46443;59.792;17.626;2023-05-10T13:10:32;8.53;;;3.53;;
60612;SDS011;46443;59.792;17.626;2023-05-10T13:12:58;6.93;;;3.40;;
60612;SDS011;46443;59.792;17.626;2023-05-10T13:15:25;5.53;;;3.20;;
60612;SDS011;46443;59.792;17.626;2023-05-10T13:17:51;7.17;;;3.00;;
60612;SDS011;46443;59.792;17.626;2023-05-10T13:20:18;5.20;;;3.13;;
60612;SDS011;46443;59.792;17.626;2023-05-10T13:22:44;4.67;;;3.03;;
60612;SDS011;46443;59.792;17.626;2023-05-10T13:25:11;5.73;;;3.10;;
60612;SDS011;46443;59.792;17.626;2023-05-10T13:27:39;6.93;;;3.40;;
60612;SDS011;46443;59.792;17.626;2023-05-10T13:30:06;6.40;;;3.17;;
60612;SDS011;46443;59.792;17.626;2023-05-10T13:32:32;6.67;;;3.40;;
60612;SDS011;46443;59.792;17.626;2023-05-10T13:34:58;6.13;;;3.40;;
60612;SDS011;46443;59.792;17.626;2023-05-10T13:37:25;5.03;;;3.13;;
60612;SDS011;46443;59.792;17.626;2023-05-10T13:39:51;5.80;;;3.30;;
60612;SDS011;46443;59.792;17.626;2023-05-10T13:42:17;7.47;;;3.30;;
60612;SDS011;46443;59.792;17.626;2023-05-10T13:44:43;8.80;;;3.60;;
60612;SDS011;46443;59.792;17.626;2023-05-10T13:47:09;7.43;;;3.40;;
60612;SDS011;46443;59.792;17.626;2023-05-10T13:49:36;6.17;;;3.33;;
60612;SDS011;46443;59.792;17.626;2023-05-10T13:52:02;5.20;;;3.30;;
60612;SDS011;46443;59.792;17.626;2023-05-10T13:54:32;8.50;;;3.63;;
60612;SDS011;46443;59.792;17.626;2023-05-10T13:56:58;7.37;;;3.13;;
60612;SDS011;46443;59.792;17.626;2023-05-10T13:59:25;5.67;;;3.13;;
60612;SDS011;46443;59.792;17.626;2023-05-10T14:01:51;7.07;;;3.53;;
60612;SDS011;46443;59.792;17.626;2023-05-10T14:04:17;5.57;;;3.10;;
60612;SDS011;46443;59.792;17.626;2023-05-10T14:06:43;5.93;;;3.00;;
60612;SDS011;46443;59.792;17.626;2023-05-10T14:09:09;5.17;;;3.07;;
60612;SDS011;46443;59.792;17.626;2023-05-10T14:11:35;5.80;;;3.40;;
60612;SDS011;46443;59.792;17.626;2023-05-10T14:14:01;5.60;;;3.37;;
60612;SDS011;46443;59.792;17.626;2023-05-10T14:16:27;5.30;;;3.10;;
60612;SDS011;46443;59.792;17.626;2023-05-10T14:18:53;8.70;;;3.70;;
60612;SDS011;46443;59.792;17.626;2023-05-10T14:21:19;6.13;;;3.00;;
60612;SDS011;46443;59.792;17.626;2023-05-10T14:23:45;7.60;;;3.23;;
60612;SDS011;46443;59.792;17.626;2023-05-10T14:26:11;5.20;;;2.90;;
60612;SDS011;46443;59.792;17.626;2023-05-10T14:28:38;5.73;;;2.90;;
60612;SDS011;46443;59.792;17.626;2023-05-10T14:31:04;6.10;;;3.40;;
60612;SDS011;46443;59.792;17.626;2023-05-10T14:33:30;4.67;;;2.80;;
60612;SDS011;46443;59.792;17.626;2023-05-10T14:35:56;6.70;;;2.80;;
60612;SDS011;46443;59.792;17.626;2023-05-10T14:38:22;5.10;;;3.43;;
60612;SDS011;46443;59.792;17.626;2023-05-10T14:40:49;5.77;;;2.47;;
60612;SDS011;46443;59.792;17.626;2023-05-10T14:43:15;4.50;;;2.93;;
60612;SDS011;46443;59.792;17.626;2023-05-10T14:45:41;5.10;;;2.90;;
60612;SDS011;46443;59.792;17.626;2023-05-10T14:48:07;5.90;;;3.40;;
60612;SDS011;46443;59.792;17.626;2023-05-10T14:50:36;7.88;;;3.47;;
60612;SDS011;46443;59.792;17.626;2023-05-10T14:53:02;4.47;;;2.90;;
60612;SDS011;46443;59.792;17.626;2023-05-10T14:55:28;5.20;;;2.70;;
60612;SDS011;46443;59.792;17.626;2023-05-10T14:57:55;6.53;;;3.07;;
60612;SDS011;46443;59.792;17.626;2023-05-10T15:00:21;8.43;;;3.50;;
60612;SDS011;46443;59.792;17.626;2023-05-10T15:02:47;7.43;;;3.50;;
60612;SDS011;46443;59.792;17.626;2023-05-10T15:05:13;6.83;;;3.30;;
60612;SDS011;46443;59.792;17.626;2023-05-10T15:07:40;5.60;;;3.10;;
60612;SDS011;46443;59.792;17.626;2023-05-10T15:10:08;4.20;;;2.93;;